createdAt,value
2023-03-16T06:00:47.602Z,100.00
2023-03-16T06:03:51.877Z,100.00
2023-03-16T06:06:54.448Z,100.00
2023-03-16T06:09:56.924Z,100.00
2023-03-16T06:13:00.020Z,100.00
2023-03-16T06:16:06.204Z,100.00
2023-03-16T06:19:08.683Z,100.00
2023-03-16T06:22:11.530Z,100.00
2023-03-16T06:25:14.951Z,100.00
2023-03-16T06:28:18.335Z,100.00
2023-03-16T06:31:22.127Z,100.00
2023-03-16T06:34:24.577Z,99.03
2023-03-16T06:37:27.091Z,93.67
2023-03-16T06:40:30.389Z,91.55
2023-03-16T06:43:33.275Z,90.03
2023-03-16T06:46:37.088Z,87.13
2023-03-16T06:49:39.870Z,88.35
2023-03-16T06:52:42.510Z,88.64
2023-03-16T06:55:44.961Z,88.87
2023-03-16T06:58:47.448Z,90.33
2023-03-16T07:01:51.464Z,93.51
2023-03-16T07:04:54.036Z,94.31
2023-03-16T07:07:56.621Z,95.80
2023-03-16T07:10:59.219Z,96.69
2023-03-16T07:14:02.452Z,98.43
2023-03-16T07:17:06.542Z,96.81
2023-03-16T07:20:12.730Z,95.81
2023-03-16T07:23:15.339Z,95.07
2023-03-16T07:26:18.721Z,94.19
2023-03-16T07:29:21.966Z,93.59
2023-03-16T07:32:25.878Z,93.16
2023-03-16T07:35:28.413Z,92.90
2023-03-16T07:38:32.430Z,92.37
2023-03-16T07:41:35.049Z,93.63
2023-03-16T07:44:37.510Z,92.82
2023-03-16T07:47:41.683Z,90.53
2023-03-16T07:50:44.225Z,90.68
2023-03-16T07:53:46.683Z,90.17
2023-03-16T07:56:49.966Z,88.62
2023-03-16T07:59:52.723Z,86.52
2023-03-16T08:02:57.558Z,86.19
2023-03-16T08:06:00.246Z,86.83
2023-03-16T08:09:02.767Z,84.97
2023-03-16T08:12:06.681Z,83.27
2023-03-16T08:15:10.185Z,82.65
2023-03-16T08:18:14.683Z,81.01
2023-03-16T08:21:17.774Z,78.59
2023-03-16T08:24:20.444Z,78.22
2023-03-16T08:27:23.043Z,76.44
2023-03-16T08:30:27.101Z,77.31
2023-03-16T08:33:31.091Z,77.34
2023-03-16T08:36:33.599Z,76.32
2023-03-16T08:39:36.067Z,77.20
2023-03-16T08:42:38.789Z,76.82
2023-03-16T08:45:42.595Z,76.37
2023-03-16T08:48:46.413Z,75.70
2023-03-16T08:51:48.912Z,76.13
2023-03-16T08:55:02.282Z,73.31
2023-03-16T08:58:06.251Z,74.56
2023-03-16T09:01:09.425Z,71.43
2023-03-16T09:04:13.312Z,69.51
2023-03-16T09:07:15.812Z,70.14
2023-03-16T09:10:18.964Z,71.70
2023-03-16T09:13:21.439Z,69.56
2023-03-16T09:16:25.628Z,69.77
2023-03-16T09:19:47.859Z,72.89
2023-03-16T09:22:52.811Z,73.09
2023-03-16T09:25:59.295Z,66.44
2023-03-16T09:29:02.196Z,63.08
2023-03-16T09:32:05.357Z,60.62
2023-03-16T09:35:10.117Z,58.59
2023-03-16T09:38:12.657Z,60.34
2023-03-16T09:41:32.055Z,61.44
2023-03-16T09:44:44.090Z,62.52
2023-03-16T09:47:48.696Z,62.20
2023-03-16T09:50:55.670Z,61.78
2023-03-16T09:54:02.902Z,57.72
2023-03-16T09:57:06.790Z,58.27
2023-03-16T10:00:18.530Z,56.52
2023-03-16T10:03:37.234Z,57.65
2023-03-16T10:06:49.496Z,56.93
2023-03-16T10:09:58.301Z,56.92
2023-03-16T10:13:02.413Z,57.86
2023-03-16T10:16:10.800Z,56.84
2023-03-16T10:19:18.601Z,56.85
2023-03-16T10:22:26.460Z,53.48
2023-03-16T10:25:36.408Z,52.07
2023-03-16T10:28:39.570Z,55.03
2023-03-16T10:31:42.888Z,52.24
2023-03-16T10:34:49.541Z,53.41
2023-03-16T10:37:53.876Z,56.05
2023-03-16T10:40:57.841Z,52.62
2023-03-16T10:44:07.366Z,49.79
2023-03-16T10:47:20.218Z,53.43
2023-03-16T10:50:27.763Z,49.95
2023-03-16T10:53:35.945Z,49.12
2023-03-16T10:56:38.461Z,46.85
2023-03-16T10:59:40.967Z,45.04
2023-03-16T11:02:44.435Z,43.72
2023-03-16T11:05:47.232Z,44.91
2023-03-16T11:08:53.994Z,46.05
2023-03-16T11:11:56.508Z,45.02
2023-03-16T11:15:04.705Z,45.55
2023-03-16T11:18:24.013Z,43.74
2023-03-16T11:21:41.110Z,47.53
2023-03-16T11:24:51.069Z,45.02
2023-03-16T11:27:57.706Z,43.99
2023-03-16T11:31:11.955Z,43.32
2023-03-16T11:34:17.836Z,42.86
2023-03-16T11:37:33.859Z,41.85
2023-03-16T11:40:50.207Z,40.71
2023-03-16T11:43:54.311Z,40.50
2023-03-16T11:47:06.977Z,40.12
2023-03-16T11:50:18.604Z,39.51
2023-03-16T11:53:33.942Z,38.66
2023-03-16T11:56:43.189Z,38.65
2023-03-16T12:00:04.009Z,38.00
2023-03-16T12:03:31.150Z,37.44
2023-03-16T12:06:48.457Z,38.09
2023-03-16T12:10:23.748Z,39.38
2023-03-16T12:13:42.116Z,39.27
2023-03-16T12:16:51.301Z,40.52
2023-03-16T12:19:58.822Z,41.29
2023-03-16T12:23:07.796Z,40.38
2023-03-16T12:26:12.446Z,41.14
2023-03-16T12:29:23.965Z,39.43
2023-03-16T12:32:36.829Z,38.23
2023-03-16T12:35:47.697Z,36.87
2023-03-16T12:38:54.417Z,35.75
2023-03-16T12:42:10.910Z,35.70
2023-03-16T12:45:19.144Z,37.45
2023-03-16T12:48:28.141Z,34.18
2023-03-16T12:51:34.669Z,32.56
2023-03-16T12:54:38.920Z,34.53
2023-03-16T12:57:42.533Z,33.96
2023-03-16T13:00:57.559Z,31.25
2023-03-16T13:04:04.020Z,32.08
2023-03-16T13:07:09.170Z,30.31
2023-03-16T13:10:15.662Z,32.05
2023-03-16T13:13:18.598Z,34.33
2023-03-16T13:16:28.310Z,32.53
2023-03-16T13:19:32.595Z,36.80
2023-03-16T13:22:48.508Z,35.93
2023-03-16T13:26:04.140Z,34.22
2023-03-16T13:29:20.502Z,36.54
2023-03-16T13:32:28.528Z,36.25
2023-03-16T13:35:31.771Z,34.95
2023-03-16T13:38:34.345Z,36.00
2023-03-16T13:41:36.968Z,33.31
2023-03-16T13:44:41.220Z,31.24
2023-03-16T13:47:46.007Z,32.77
2023-03-16T13:50:52.827Z,31.47
2023-03-16T13:53:55.372Z,33.66
2023-03-16T13:57:01.209Z,33.12
2023-03-16T14:00:15.693Z,32.80
2023-03-16T14:03:22.307Z,33.65
2023-03-16T14:06:27.045Z,32.07
2023-03-16T14:09:33.171Z,31.90
2023-03-16T14:12:37.747Z,33.84
2023-03-16T14:15:40.870Z,33.94
2023-03-16T14:18:47.394Z,34.42
2023-03-16T14:21:50.062Z,33.40
2023-03-16T14:24:56.888Z,33.19
2023-03-16T14:28:01.567Z,33.80
2023-03-16T14:31:06.432Z,32.77
2023-03-16T14:34:23.617Z,32.90
2023-03-16T14:37:35.799Z,34.72
2023-03-16T14:40:40.313Z,35.64
2023-03-16T14:43:48.141Z,36.66
2023-03-16T14:46:51.121Z,37.55
2023-03-16T14:49:57.459Z,37.59
2023-03-16T14:53:00.496Z,37.01
2023-03-16T14:56:03.807Z,38.28
2023-03-16T14:59:06.783Z,40.26
2023-03-16T15:02:17.340Z,38.62
2023-03-16T15:05:26.186Z,38.96
2023-03-16T15:08:32.812Z,40.01
2023-03-16T15:11:35.288Z,39.77
2023-03-16T15:14:54.953Z,38.84
2023-03-16T15:17:57.493Z,39.94
2023-03-16T15:21:02.158Z,39.72
2023-03-16T15:24:04.761Z,40.12
2023-03-16T15:27:19.582Z,38.35
2023-03-16T15:30:25.696Z,37.40
2023-03-16T15:33:28.690Z,38.03
2023-03-16T15:36:33.027Z,37.94
2023-03-16T15:39:35.538Z,37.87
2023-03-16T15:42:38.001Z,38.14
2023-03-16T15:45:40.494Z,39.21
2023-03-16T15:48:44.346Z,38.89
2023-03-16T15:51:48.201Z,37.93
2023-03-16T15:54:51.302Z,38.53
2023-03-16T15:58:00.092Z,39.80
2023-03-16T16:01:04.791Z,40.39
2023-03-16T16:04:13.344Z,40.32
2023-03-16T16:07:17.351Z,41.68
2023-03-16T16:10:19.885Z,41.00
2023-03-16T16:13:37.573Z,42.20
2023-03-16T16:16:46.753Z,44.26
2023-03-16T16:19:49.282Z,45.07
2023-03-16T16:22:53.994Z,46.14
2023-03-16T16:26:00.756Z,46.04
2023-03-16T16:29:12.449Z,47.79
2023-03-16T16:32:23.825Z,48.25
2023-03-16T16:35:28.324Z,49.26
2023-03-16T16:38:33.102Z,49.75
2023-03-16T16:41:36.747Z,49.77
2023-03-16T16:44:39.219Z,50.46
2023-03-16T16:47:41.671Z,52.20
2023-03-16T16:50:44.140Z,51.35
2023-03-16T16:53:48.954Z,51.04
2023-03-16T16:56:54.119Z,51.01
2023-03-16T16:59:57.743Z,51.95
2023-03-16T17:03:01.035Z,52.82
2023-03-16T17:06:03.521Z,51.27
2023-03-16T17:09:08.746Z,50.18
2023-03-16T17:12:17.296Z,50.36
2023-03-16T17:15:26.470Z,51.16
2023-03-16T17:18:29.009Z,50.97
2023-03-16T17:21:32.288Z,51.49
2023-03-16T17:24:37.322Z,52.51
2023-03-16T17:27:39.920Z,50.95
2023-03-16T17:30:42.684Z,51.82
2023-03-16T17:33:45.449Z,51.17
2023-03-16T17:36:48.502Z,51.37
2023-03-16T17:39:52.385Z,52.41
2023-03-16T17:42:56.330Z,51.60
2023-03-16T17:45:59.951Z,53.10
2023-03-16T17:49:02.459Z,53.06
2023-03-16T17:52:13.256Z,53.10
2023-03-16T17:55:20.337Z,52.42
2023-03-16T17:58:27.737Z,53.09
